• Join FlightAware (Why Join?)
  • Login
  • US Flag 
09:20PM EDT


 

Airport Tracker/Info


-or-


 

Live Flight TrackerFlight Track Log ✈ AAL814 ✈ 15-May-2013 ✈ TKPK / SKB - KMIA

Flight Track Log - Related Links

Times and Time Zones

All times are in EDT time to prevent confusion due to time zone crossing. See the AAL814 flight status page for this flight to view local times or setup timezone preferences in your user account.

Time Position Orientation Groundspeed Altitude Reporting Facility
EDT Latitude Longitude Course Direction KTS MPH feet Rate Location/Type
03:02PM 17.4702 -63.0021 331° Northwest  Level Estimated
03:03PM 17.5729 -63.0229 349° North  Level FlightAware Approximate
03:04PM 17.6755 -63.0438 349° North  Level FlightAware Approximate
03:05PM 17.7276 -63.1389 337° Northwest  Level Estimated
03:06PM 17.7796 -63.2340 329° Northwest  Level Estimated
03:07PM 17.8753 -63.1898 24° Northeast  Level FlightAware Approximate
03:07PM 17.7000 -63.0710 24° Northeast 358 412 11,800  Level FlightAware
03:07PM 17.7380 -63.1240 307° West 359 413 13,400 1,200 Climbing FlightAware
03:08PM 17.7720 -63.1710 307° West 359 413 13,400  Level FlightAware
03:09PM 17.8060 -63.2190 307° West 359 413 13,400 3,660 Level FlightAware
03:09PM 17.8333 -63.2667 307° West 370 426 17,200 4,560 Climbing San Juan Center
03:10PM 17.8833 -63.3667 298° West 380 437 19,700 1,860 Climbing San Juan Center
03:16PM 18.2130 -63.9760 298° West 450 518 29,500 1,740 Climbing FlightAware
03:16PM 18.2450 -64.0370 299° West 444 511 30,600 1,920 Climbing FlightAware
03:17PM 18.2950 -64.1340 299° West 433 498 32,300 1,920 Climbing FlightAware
03:18PM 18.3340 -64.2080 299° West 428 493 33,500 1,260 Climbing FlightAware
03:18PM 18.3720 -64.2810 299° West 420 483 34,000 360 Climbing FlightAware
03:19PM 18.4040 -64.3450 298° West 420 483 34,000  Level FlightAware
03:20PM 18.4350 -64.4060 298° West 420 483 34,000  Level FlightAware
03:20PM 18.4740 -64.4830 298° West 420 483 34,000  Level FlightAware
03:21PM 18.5050 -64.5440 298° West 420 483 34,000  Level FlightAware
03:22PM 18.5620 -64.6490 300° West 405 466 34,000  Level FlightAware
03:23PM 18.6010 -64.7240 299° West 410 472 34,000  Level FlightAware
03:23PM 18.6390 -64.7980 298° West 411 473 34,000  Level FlightAware
03:24PM 18.6760 -64.8700 298° West 411 473 34,000  Level FlightAware
03:25PM 18.7160 -64.9480 298° West 410 472 34,000  Level FlightAware
03:25PM 18.7510 -65.0160 299° West 410 472 34,000  Level FlightAware
03:26PM 18.7930 -65.0990 298° West 408 470 34,000  Level FlightAware
03:27PM 18.8290 -65.1680 299° West 407 468 34,000  Level FlightAware
03:27PM 18.8680 -65.2450 298° West 409 471 34,000  Level FlightAware
03:28PM 18.9040 -65.3160 298° West 409 471 34,000  Level FlightAware
03:29PM 18.9400 -65.3870 298° West 410 472 34,000  Level FlightAware
03:30PM 18.9810 -65.4670 298° West 411 473 34,000  Level FlightAware
03:30PM 19.0180 -65.5380 299° West 410 472 34,000  Level FlightAware
03:31PM 19.0580 -65.6170 298° West 411 473 34,000  Level FlightAware
03:32PM 19.0930 -65.6870 298° West 410 472 34,000  Level FlightAware
03:32PM 19.1290 -65.7570 299° West 410 472 34,000  Level FlightAware
03:33PM 19.1690 -65.8360 298° West 410 472 34,000  Level FlightAware
03:34PM 19.2060 -65.9100 298° West 410 472 34,000  Level FlightAware
03:34PM 19.2450 -65.9870 298° West 408 470 34,000  Level FlightAware
03:35PM 19.2810 -66.0570 299° West 406 467 34,000  Level FlightAware
03:36PM 19.3160 -66.1270 298° West 404 465 34,000  Level FlightAware
03:37PM 19.3560 -66.2080 298° West 405 466 34,000  Level FlightAware
03:37PM 19.3920 -66.2780 299° West 406 467 34,000  Level FlightAware
03:38PM 19.4180 -66.3310 297° West 407 468 34,000  Level FlightAware
03:38PM 19.4530 -66.4010 298° West 410 472 34,000  Level FlightAware
03:39PM 19.4930 -66.4800 298° West 412 474 34,000  Level FlightAware
03:40PM 19.5290 -66.5520 298° West 412 474 34,000  Level FlightAware
03:40PM 19.5640 -66.6230 298° West 415 478 34,000  Level FlightAware
03:41PM 19.6050 -66.7050 298° West 416 479 34,000  Level FlightAware
03:42PM 19.6420 -66.7780 298° West 417 480 34,000  Level FlightAware
03:43PM 19.6800 -66.8560 297° West 414 476 34,000  Level FlightAware
03:43PM 19.7180 -66.9310 298° West 412 474 34,000  Level FlightAware
03:44PM 19.7520 -67.0000 298° West 413 475 34,000  Level FlightAware
03:45PM 19.7850 -67.0690 297° West 413 475 34,000  Level FlightAware
03:45PM 19.8150 -67.1300 298° West 413 475 34,000  Level FlightAware
03:46PM 19.8520 -67.2070 297° West 413 475 34,000  Level FlightAware
03:47PM 19.8740 -67.2530 297° West 413 475 34,000  Level FlightAware
03:47PM 19.8960 -67.3000 296° West 413 475 34,000  Level FlightAware
03:48PM 19.9630 -67.4270 299° West 403 464 34,000  Level FlightAware
03:49PM 19.9930 -67.4900 297° West 403 464 34,000  Level FlightAware
03:49PM 20.0220 -67.5500 297° West 403 464 34,000  Level FlightAware
03:50PM 20.0670 -67.6380 299° West 402 463 34,000  Level FlightAware
03:51PM 20.1090 -67.7250 297° West 402 463 34,000  Level FlightAware
03:51PM 20.1400 -67.7900 297° West 402 463 34,000  Level FlightAware
03:52PM 20.1780 -67.8660 298° West 402 463 34,000  Level FlightAware
03:53PM 20.2220 -67.9570 297° West 402 463 34,000  Level FlightAware
03:54PM 20.2510 -68.0170 297° West 402 463 34,000  Level FlightAware
03:55PM 20.2870 -68.0920 297° West 402 463 34,000  Level FlightAware
03:55PM 20.3160 -68.1530 297° West 402 463 34,000  Level FlightAware
03:56PM 20.3440 -68.2130 296° West 402 463 34,000  Level FlightAware
03:57PM 20.3730 -68.2730 297° West 402 463 34,000  Level FlightAware
03:57PM 20.4020 -68.3330 297° West 402 463 34,000  Level FlightAware
03:58PM 20.4380 -68.4080 297° West 402 463 34,000  Level FlightAware
03:59PM 20.4660 -68.4680 296° West 402 463 34,000  Level FlightAware
03:59PM 20.4950 -68.5280 297° West 402 463 34,000  Level FlightAware
04:00PM 20.5240 -68.5880 297° West 402 463 34,000  Level FlightAware
04:01PM 20.5520 -68.6490 296° West 402 463 34,000  Level FlightAware
04:02PM 20.5880 -68.7240 297° West 402 463 34,000  Level FlightAware
04:02PM 20.6170 -68.7840 297° West 402 463 34,000  Level FlightAware
04:03PM 20.7311 -69.0219 297° West 404 465 34,000  Level Miami Center
04:04PM 20.7844 -69.1297 298° West 404 465 34,000  Level Miami Center
04:05PM 20.8375 -69.2375 298° West 410 472 34,000  Level Miami Center
04:06PM 20.8889 -69.3475 297° West 410 472 34,000  Level Miami Center
04:07PM 20.9417 -69.4533 298° West 416 479 34,000  Level Miami Center
04:08PM 20.9928 -69.5614 297° West 416 479 34,000  Level Miami Center
04:09PM 21.0458 -69.6717 297° West 416 479 34,000  Level Miami Center
04:10PM 21.0989 -69.7800 298° West 416 479 34,000  Level Miami Center
04:11PM 21.1497 -69.8906 296° West 416 479 34,000  Level Miami Center
04:12PM 21.2025 -69.9989 298° West 416 479 34,000  Level Miami Center
04:13PM 21.2553 -70.1097 297° West 416 479 34,000  Level Miami Center
04:14PM 21.3103 -70.2203 298° West 416 479 34,000  Level Miami Center
04:15PM 21.3631 -70.3314 297° West 416 479 34,000  Level Miami Center
04:16PM 21.4156 -70.4422 297° West 416 479 34,000  Level Miami Center
04:17PM 21.4681 -70.5533 297° West 416 479 34,000  Level Miami Center
04:18PM 21.5228 -70.6667 297° West 421 484 34,000  Level Miami Center
04:19PM 21.5753 -70.7803 296° West 421 484 34,000  Level Miami Center
04:20PM 21.6297 -70.8936 297° West 421 484 34,000  Level Miami Center
04:21PM 21.6864 -71.0072 298° West 421 484 34,000  Level Miami Center
04:22PM 21.7367 -71.1211 295° West 426 490 34,000  Level Miami Center
04:23PM 21.7908 -71.2372 297° West 426 490 34,000  Level Miami Center
04:24PM 21.8411 -71.3511 295° West 426 490 34,000  Level Miami Center
04:25PM 21.8931 -71.4653 296° West 426 490 34,000  Level Miami Center
04:26PM 21.9450 -71.5772 297° West 426 490 34,000  Level Miami Center
04:27PM 21.9989 -71.6936 297° West 426 490 34,000  Level Miami Center
04:28PM 22.0508 -71.8081 296° West 426 490 34,000  Level Miami Center
04:29PM 22.1025 -71.9225 296° West 426 490 34,000  Level Miami Center
04:30PM 22.1544 -72.0392 296° West 431 496 34,000  Level Miami Center
04:31PM 22.2100 -72.1539 298° West 436 502 34,000  Level Miami Center
04:32PM 22.2597 -72.2731 294° West 436 502 34,000  Level Miami Center
04:33PM 22.3133 -72.3878 297° West 436 502 34,000  Level Miami Center
04:34PM 22.3667 -72.5006 297° West 436 502 34,000  Level Miami Center
04:35PM 22.4181 -72.6200 295° West 431 496 34,000  Level Miami Center
04:36PM 22.4711 -72.7328 297° West 431 496 34,000  Level Miami Center
04:37PM 22.5222 -72.8481 296° West 436 502 34,000  Level Miami Center
04:38PM 22.5756 -72.9633 297° West 436 502 34,000  Level Miami Center
04:39PM 22.6264 -73.0789 295° West 431 496 34,000  Level Miami Center
04:40PM 22.6731 -73.1922 294° West 426 490 34,000  Level Miami Center
04:41PM 22.7219 -73.3103 294° West 426 490 34,000  Level Miami Center
04:42PM 22.7725 -73.4236 296° West 421 484 34,000  Level Miami Center
04:43PM 22.8253 -73.5372 297° West 416 479 34,000  Level Miami Center
04:44PM 22.8778 -73.6531 296° West 416 479 34,000  Level Miami Center
04:45PM 22.9283 -73.7689 295° West 416 479 34,000  Level Miami Center
04:46PM 22.9786 -73.8828 296° West 421 484 34,000  Level Miami Center
04:47PM 23.0289 -73.9967 296° West 421 484 34,000  Level Miami Center
04:48PM 23.0792 -74.1131 295° West 421 484 34,000  Level Miami Center
04:49PM 23.1292 -74.2272 295° West 421 484 34,000  Level Miami Center
04:50PM 23.1792 -74.3392 296° West 421 484 34,000  Level Miami Center
04:51PM 23.2269 -74.4511 295° West 416 479 34,000  Level Miami Center
04:52PM 23.2767 -74.5656 295° West 416 479 34,000  Level Miami Center
04:53PM 23.3267 -74.6778 296° West 416 479 34,000  Level Miami Center
04:54PM 23.3761 -74.7925 295° West 421 484 34,000  Level Miami Center
04:55PM 23.4236 -74.9047 295° West 421 484 34,000  Level Miami Center
04:56PM 23.4733 -75.0194 295° West 421 484 34,000  Level Miami Center
04:57PM 23.5247 -75.1344 296° West 421 484 34,000  Level Miami Center
04:58PM 23.5742 -75.2469 296° West 421 484 34,000  Level Miami Center
04:59PM 23.6233 -75.3619 295° West 421 484 34,000  Level Miami Center
05:00PM 23.6706 -75.4794 294° West 421 484 34,000  Level Miami Center
05:01PM 23.7217 -75.5925 296° West 421 484 34,000  Level Miami Center
05:02PM 23.7686 -75.7078 294° West 421 484 34,000  Level Miami Center
05:03PM 23.8175 -75.8231 295° West 421 484 34,000  Level Miami Center
05:04PM 23.8661 -75.9408 294° West 421 484 34,000  Level Miami Center
05:05PM 23.9150 -76.0542 295° West 421 484 34,000  Level Miami Center
05:06PM 23.9614 -76.1675 294° West 421 484 34,000  Level Miami Center
05:07PM 24.0081 -76.2811 294° West 416 479 34,000  Level Miami Center
05:08PM 24.0564 -76.3947 295° West 416 479 34,000  Level Miami Center
05:09PM 24.1028 -76.5106 294° West 416 479 34,000  Level Miami Center
05:10PM 24.1511 -76.6242 295° West 416 479 34,000  Level Miami Center
05:11PM 24.1972 -76.7381 294° West 416 479 34,000  Level Miami Center
05:12PM 24.2453 -76.8542 294° West 416 479 34,000  Level Miami Center
05:13PM 24.2914 -76.9683 294° West 416 479 34,000  Level Miami Center
05:14PM 24.3392 -77.0847 294° West 416 479 34,000  Level Miami Center
05:15PM 24.3869 -77.2011 294° West 416 479 34,000  Level Miami Center
05:16PM 24.4328 -77.3153 294° West 416 479 34,000  Level Miami Center
05:17PM 24.4783 -77.4275 294° West 416 479 34,000  Level Miami Center
05:18PM 24.5258 -77.5464 294° West 416 479 34,000  Level Miami Center
05:19PM 24.5714 -77.6608 294° West 416 479 34,000  Level Miami Center
05:20PM 24.6228 -77.7869 294° West 411 473 34,000  Level Miami Center
05:21PM 24.6700 -77.9039 294° West 416 479 34,000  Level Miami Center
05:27PM 24.9300 -78.5440 294° West 403 464 34,000 -360 Level FlightAware
05:28PM 24.9860 -78.6870 293° West 415 478 31,900 -1,740 Descending FlightAware
05:29PM 25.0410 -78.8280 293° West 422 486 29,800 -2,700 Descending FlightAware
05:30PM 25.0750 -78.9110 294° West 418 481 27,000 -3,300 Descending FlightAware
05:31PM 25.1090 -78.9980 293° West 413 475 25,200 -2,400 Descending FlightAware
05:31PM 25.1380 -79.0730 293° West 408 470 23,600 -2,400 Descending FlightAware
05:32PM 25.1760 -79.1700 293° West 396 456 21,600 -2,280 Descending FlightAware
05:33PM 25.2090 -79.2560 293° West 390 449 19,800 -2,280 Descending FlightAware
05:34PM 25.2400 -79.3350 293° West 383 441 18,200 -2,280 Descending FlightAware
05:34PM 25.2670 -79.4050 293° West 373 429 16,800 -2,160 Descending FlightAware
05:35PM 25.3020 -79.4930 294° West 358 412 15,000 -2,100 Descending FlightAware
05:36PM 25.3280 -79.5600 293° West 353 406 13,700 -1,800 Descending FlightAware
05:36PM 25.3530 -79.6270 292° West 347 399 12,600 -1,380 Descending FlightAware
05:37PM 25.3810 -79.6980 294° West 332 382 11,800 -600 Descending FlightAware
05:38PM 25.4110 -79.7560 300° West 326 375 11,800  Level FlightAware
05:39PM 25.4470 -79.8110 306° West 328 377 11,800  Level FlightAware
05:39PM 25.4870 -79.8710 306° West 327 376 11,800 -180 Level FlightAware
05:40PM 25.5220 -79.9250 306° West 328 377 11,600 -600 Descending FlightAware
05:41PM 25.5630 -79.9870 306° West 316 364 11,000 -900 Descending FlightAware
05:41PM 25.5960 -80.0370 306° West 293 337 10,400 -1,200 Descending FlightAware
05:42PM 25.6200 -80.0750 305° West 288 331 9,600 -1,440 Descending FlightAware
05:42PM 25.6400 -80.1050 306° West 284 327 9,100 -1,080 Descending FlightAware
05:43PM 25.6510 -80.1220 306° West 282 325 8,900 -960 Descending FlightAware
05:43PM 25.6690 -80.1620 297° West 289 333 8,400 -1,140 Descending FlightAware
05:43PM 25.6780 -80.1980 286° West 288 331 7,900 -1,320 Descending FlightAware
05:44PM 25.6890 -80.2400 286° West 281 323 7,200 -1,500 Descending FlightAware
05:44PM 25.7000 -80.2820 286° West 284 327 6,400 -1,440 Descending FlightAware
05:45PM 25.7080 -80.3170 284° West 276 318 5,900 -1,500 Descending FlightAware
05:46PM 25.7080 -80.3780 270° West 264 304 4,700 -1,560 Descending FlightAware
05:46PM 25.7080 -80.3830 270° West 264 304 4,600 -1,080 Descending FlightAware
05:46PM 25.7060 -80.4230 267° West 241 277 4,100 -1,140 Descending FlightAware
05:47PM 25.7190 -80.4530 296° West 237 273 3,500 -1,380 Descending FlightAware
05:47PM 25.7330 -80.4570 346° North 196 226 3,100 -1,380 Descending FlightAware
05:47PM 25.7520 -80.4400 39° Northeast 168 193 2,500 -1,200 Descending FlightAware
05:48PM 25.7600 -80.4260 58° Northeast 159 183 2,100 -1,200 Descending FlightAware
05:48PM 25.7720 -80.4030 60° Northeast 145 167 1,400 -1,020 Descending FlightAware
05:49PM 25.7790 -80.3890 61° Northeast 131 151 1,100 -660 Descending FlightAware
05:49PM 25.7840 -80.3680 75° East 130 150 800 -600 Descending FlightAware
05:50PM 25.7850 -80.3480 87° East 130 150 500 -600 Descending FlightAware
05:50PM 25.7860 -80.3290 87° East 134 154 200 -360 Descending FlightAware
05:51PM 25.7860 -80.3140 90° East 134 154 200  Level FlightAware